createdAt,value
2023-05-13T00:00:43.117Z,2.20
2023-05-13T00:03:10.416Z,3.15
2023-05-13T00:05:37.949Z,2.40
2023-05-13T00:08:07.305Z,2.20
2023-05-13T00:10:35.797Z,2.70
2023-05-13T00:13:03.381Z,2.45
2023-05-13T00:15:30.757Z,2.22
2023-05-13T00:17:58.314Z,2.63
2023-05-13T00:20:25.909Z,2.45
2023-05-13T00:22:53.314Z,2.42
2023-05-13T00:25:20.678Z,2.45
2023-05-13T00:27:47.941Z,2.10
2023-05-13T00:30:15.595Z,1.77
2023-05-13T00:32:43.041Z,1.95
2023-05-13T00:35:10.419Z,1.73
2023-05-13T00:37:37.886Z,2.22
2023-05-13T00:40:05.765Z,2.45
2023-05-13T00:42:33.070Z,2.00
2023-05-13T00:45:01.569Z,2.35
2023-05-13T00:47:29.043Z,2.05
2023-05-13T00:49:57.300Z,2.13
2023-05-13T00:52:24.931Z,2.35
2023-05-13T00:54:52.189Z,2.80
2023-05-13T00:57:19.510Z,2.80
2023-05-13T00:59:46.816Z,2.00
2023-05-13T01:02:27.411Z,1.85
2023-05-13T01:05:18.409Z,2.40
2023-05-13T01:08:13.739Z,2.63
2023-05-13T01:10:47.535Z,2.20
2023-05-13T01:13:19.390Z,2.00
2023-05-13T01:15:53.408Z,2.58
2023-05-13T01:18:25.597Z,2.30
2023-05-13T01:20:53.829Z,2.80
2023-05-13T01:23:21.278Z,2.42
2023-05-13T01:25:50.414Z,2.00
2023-05-13T01:28:18.000Z,2.13
2023-05-13T01:30:49.822Z,2.83
2023-05-13T01:33:18.725Z,2.28
2023-05-13T01:35:47.624Z,1.88
2023-05-13T01:38:18.603Z,2.55
2023-05-13T01:40:49.737Z,2.08
2023-05-13T01:43:18.263Z,2.15
2023-05-13T01:45:47.527Z,2.70
2023-05-13T01:48:15.403Z,2.60
2023-05-13T01:50:46.334Z,2.70
2023-05-13T01:53:13.773Z,2.22
2023-05-13T01:55:41.915Z,2.20
2023-05-13T01:58:10.449Z,2.38
2023-05-13T02:00:37.928Z,2.15
2023-05-13T02:03:05.359Z,2.67
2023-05-13T02:05:33.198Z,2.45
2023-05-13T02:08:05.031Z,2.22
2023-05-13T02:10:32.552Z,2.17
2023-05-13T02:13:01.380Z,2.33
2023-05-13T02:15:28.841Z,2.47
2023-05-13T02:17:56.978Z,2.17
2023-05-13T02:20:24.778Z,2.63
2023-05-13T02:22:52.142Z,2.70
2023-05-13T02:25:19.544Z,1.90
2023-05-13T02:27:46.757Z,2.05
2023-05-13T02:30:14.088Z,2.70
2023-05-13T02:32:43.906Z,2.45
2023-05-13T02:35:11.406Z,2.67
2023-05-13T02:37:38.795Z,3.17
2023-05-13T02:40:06.746Z,2.78
2023-05-13T02:42:34.005Z,2.38
2023-05-13T02:45:01.725Z,3.28
2023-05-13T02:47:32.080Z,2.63
2023-05-13T02:50:05.844Z,2.40
2023-05-13T02:52:35.753Z,2.70
2023-05-13T02:55:03.921Z,2.60
2023-05-13T02:57:31.541Z,2.53
2023-05-13T02:59:59.332Z,2.33
2023-05-13T03:02:28.031Z,2.80
2023-05-13T03:04:56.440Z,2.60
2023-05-13T03:07:24.870Z,2.40
2023-05-13T03:09:52.124Z,3.20
2023-05-13T03:12:19.483Z,2.42
2023-05-13T03:14:48.628Z,2.63
2023-05-13T03:17:15.952Z,2.67
2023-05-13T03:19:43.618Z,2.83
2023-05-13T03:22:10.960Z,2.90
2023-05-13T03:24:38.165Z,3.00
2023-05-13T03:27:05.709Z,3.45
2023-05-13T03:29:33.423Z,2.97
2023-05-13T03:32:00.780Z,2.90
2023-05-13T03:34:28.214Z,2.75
2023-05-13T03:36:55.653Z,3.05
2023-05-13T03:39:23.128Z,2.80
2023-05-13T03:41:50.328Z,3.63
2023-05-13T03:44:17.589Z,3.42
2023-05-13T03:46:44.930Z,3.13
2023-05-13T03:49:12.507Z,3.50
2023-05-13T03:51:39.917Z,2.67
2023-05-13T03:54:07.866Z,3.55
2023-05-13T03:56:35.137Z,2.55
2023-05-13T03:59:02.577Z,2.58
2023-05-13T04:01:30.080Z,2.75
2023-05-13T04:03:57.444Z,2.58
2023-05-13T04:06:24.774Z,2.70
2023-05-13T04:08:52.060Z,2.80
2023-05-13T04:11:19.282Z,3.33
2023-05-13T04:13:48.179Z,2.70
2023-05-13T04:16:17.294Z,3.00
2023-05-13T04:18:44.628Z,3.42
2023-05-13T04:21:11.848Z,2.67
2023-05-13T04:23:39.158Z,2.95
2023-05-13T04:26:06.607Z,2.70
2023-05-13T04:28:34.721Z,3.50
2023-05-13T04:31:03.460Z,2.78
2023-05-13T04:33:32.397Z,3.15
2023-05-13T04:35:59.782Z,2.97
2023-05-13T04:38:27.404Z,2.90
2023-05-13T04:40:54.903Z,3.10
2023-05-13T04:43:42.340Z,2.85
2023-05-13T04:46:11.069Z,2.50
2023-05-13T04:48:39.027Z,2.33
2023-05-13T04:51:06.562Z,3.08
2023-05-13T04:53:34.475Z,2.90
2023-05-13T04:56:05.572Z,2.60
2023-05-13T04:58:32.858Z,3.28
2023-05-13T05:01:00.683Z,3.45
2023-05-13T05:03:28.284Z,2.67
2023-05-13T05:05:56.061Z,2.70
2023-05-13T05:08:24.567Z,3.00
2023-05-13T05:10:51.974Z,2.63
2023-05-13T05:13:20.282Z,2.30
2023-05-13T05:15:47.657Z,2.72
2023-05-13T05:18:15.700Z,1.95
2023-05-13T05:20:46.156Z,2.90
2023-05-13T05:23:16.515Z,2.22
2023-05-13T05:25:44.699Z,2.60
2023-05-13T05:28:12.148Z,2.72
2023-05-13T05:30:42.198Z,2.30
2023-05-13T05:33:19.819Z,2.30
2023-05-13T05:35:48.004Z,2.25
2023-05-13T05:38:17.872Z,2.13
2023-05-13T05:40:46.822Z,2.30
2023-05-13T05:43:16.385Z,2.28
2023-05-13T05:45:44.059Z,2.28
2023-05-13T05:48:15.598Z,2.15
2023-05-13T05:50:43.408Z,2.63
2023-05-13T05:53:13.857Z,2.25
2023-05-13T05:55:41.901Z,1.70
2023-05-13T05:58:10.168Z,2.33
2023-05-13T06:00:38.719Z,2.88
2023-05-13T06:03:06.588Z,2.63
2023-05-13T06:05:35.304Z,2.65
2023-05-13T06:08:02.962Z,2.50
2023-05-13T06:10:30.891Z,2.20
2023-05-13T06:12:58.646Z,2.67
2023-05-13T06:15:26.060Z,3.47
2023-05-13T06:17:53.432Z,2.58
2023-05-13T06:20:20.955Z,2.80
2023-05-13T06:22:48.413Z,2.50
2023-05-13T06:25:16.185Z,2.72
2023-05-13T06:27:43.558Z,2.85
2023-05-13T06:30:12.202Z,2.47
2023-05-13T06:32:53.594Z,2.45
2023-05-13T06:35:28.023Z,2.70
2023-05-13T06:37:55.847Z,2.75
2023-05-13T06:40:23.782Z,2.40
2023-05-13T06:42:53.198Z,2.70
2023-05-13T06:45:23.644Z,2.70
2023-05-13T06:47:55.051Z,2.65
2023-05-13T06:50:22.754Z,2.40
2023-05-13T06:52:50.606Z,2.40
2023-05-13T06:55:19.031Z,2.63
2023-05-13T06:57:47.144Z,2.92
2023-05-13T07:00:15.657Z,2.42
2023-05-13T07:02:43.125Z,2.38
2023-05-13T07:05:11.665Z,2.70
2023-05-13T07:07:39.191Z,2.83
2023-05-13T07:10:06.908Z,2.20
2023-05-13T07:12:34.631Z,2.28
2023-05-13T07:15:02.480Z,2.45
2023-05-13T07:17:31.304Z,1.80
2023-05-13T07:19:59.127Z,3.40
2023-05-13T07:22:26.836Z,2.22
2023-05-13T07:24:54.987Z,2.05
2023-05-13T07:27:22.854Z,2.20
2023-05-13T07:29:50.110Z,2.28
2023-05-13T07:32:17.594Z,2.15
2023-05-13T07:34:44.948Z,2.28
2023-05-13T07:37:12.325Z,2.30
2023-05-13T07:39:39.724Z,2.05
2023-05-13T07:42:07.621Z,2.38
2023-05-13T07:44:35.204Z,2.08
2023-05-13T07:47:02.525Z,1.45
2023-05-13T07:49:29.901Z,1.83
2023-05-13T07:51:57.630Z,2.25
2023-05-13T07:54:24.890Z,1.90
2023-05-13T07:56:52.716Z,1.65
2023-05-13T07:59:20.043Z,1.90
2023-05-13T08:01:47.389Z,2.30
2023-05-13T08:04:14.884Z,1.52
2023-05-13T08:06:42.189Z,1.52
2023-05-13T08:09:12.160Z,2.35
2023-05-13T08:11:39.837Z,2.05
2023-05-13T08:14:07.348Z,2.00
2023-05-13T08:16:36.364Z,1.83
2023-05-13T08:19:03.941Z,1.83
2023-05-13T08:21:31.782Z,2.30
2023-05-13T08:23:59.028Z,1.65
2023-05-13T08:26:26.798Z,1.92
2023-05-13T08:28:55.019Z,1.42
2023-05-13T08:31:24.886Z,2.22
2023-05-13T08:33:53.355Z,2.15
2023-05-13T08:36:22.788Z,1.67
2023-05-13T08:38:50.113Z,1.75
2023-05-13T08:41:18.960Z,1.25
2023-05-13T08:43:48.543Z,1.73
2023-05-13T08:46:18.472Z,1.42
2023-05-13T08:48:47.004Z,1.90
2023-05-13T08:51:14.476Z,1.52
2023-05-13T08:53:44.279Z,1.77
2023-05-13T08:56:12.333Z,1.60
2023-05-13T08:58:39.536Z,1.95
2023-05-13T09:01:08.131Z,1.40
2023-05-13T09:03:37.599Z,1.60
2023-05-13T09:06:05.402Z,1.27
2023-05-13T09:08:32.878Z,1.70
2023-05-13T09:11:00.913Z,1.52
2023-05-13T09:13:28.373Z,2.17
2023-05-13T09:15:55.914Z,1.60
2023-05-13T09:18:31.799Z,1.33
2023-05-13T09:21:23.673Z,2.05
2023-05-13T09:24:20.932Z,1.55
2023-05-13T09:26:49.580Z,1.48
2023-05-13T09:29:31.703Z,2.10
2023-05-13T09:32:01.376Z,1.60
2023-05-13T09:34:33.962Z,1.80
2023-05-13T09:37:02.453Z,1.73
2023-05-13T09:39:33.873Z,1.38
2023-05-13T09:42:04.873Z,1.52
2023-05-13T09:44:33.950Z,1.70
2023-05-13T09:47:02.636Z,1.40
2023-05-13T09:49:31.784Z,2.08
2023-05-13T09:51:59.224Z,1.33
2023-05-13T09:54:28.590Z,1.58
2023-05-13T09:57:01.336Z,1.83
2023-05-13T09:59:32.704Z,1.98
2023-05-13T10:02:06.641Z,1.95
2023-05-13T10:04:34.660Z,1.63
2023-05-13T10:07:04.240Z,1.67
2023-05-13T10:09:36.267Z,1.75
2023-05-13T10:12:06.731Z,1.85
2023-05-13T10:14:36.591Z,1.30
2023-05-13T10:17:05.345Z,1.58
2023-05-13T10:19:33.583Z,1.52
2023-05-13T10:22:02.153Z,1.55
2023-05-13T10:24:30.289Z,1.63
2023-05-13T10:26:58.622Z,1.60
2023-05-13T10:29:28.386Z,1.40
2023-05-13T10:31:56.434Z,1.40
2023-05-13T10:34:25.198Z,1.63
2023-05-13T10:37:01.866Z,1.15
2023-05-13T10:40:04.879Z,2.13
2023-05-13T10:42:43.063Z,1.33
2023-05-13T10:45:10.990Z,1.73
2023-05-13T10:47:39.099Z,1.52
2023-05-13T10:50:22.196Z,1.40
2023-05-13T10:52:49.978Z,1.63
2023-05-13T10:55:19.907Z,1.20
2023-05-13T10:58:09.809Z,1.67
2023-05-13T11:00:38.835Z,1.60
2023-05-13T11:03:32.607Z,1.30
2023-05-13T11:06:15.273Z,1.40
2023-05-13T11:08:44.760Z,1.88
2023-05-13T11:11:20.868Z,1.50
2023-05-13T11:14:02.193Z,1.48
2023-05-13T11:16:29.707Z,1.40
2023-05-13T11:18:57.333Z,1.15
2023-05-13T11:21:31.137Z,1.90
2023-05-13T11:24:04.104Z,1.20
2023-05-13T11:26:52.678Z,1.48
2023-05-13T11:29:33.456Z,1.48
2023-05-13T11:32:02.425Z,1.65
2023-05-13T11:34:31.190Z,1.10
2023-05-13T11:37:05.272Z,1.38
2023-05-13T11:39:33.290Z,1.95
2023-05-13T11:42:02.356Z,1.63
2023-05-13T11:44:30.090Z,2.00
2023-05-13T11:47:02.944Z,1.55
2023-05-13T11:49:44.717Z,1.60
2023-05-13T11:52:13.019Z,1.60
2023-05-13T11:54:57.382Z,1.27
2023-05-13T11:57:25.836Z,1.60
2023-05-13T12:00:02.045Z,1.73
2023-05-13T12:02:37.973Z,2.13
2023-05-13T12:05:07.712Z,1.92
2023-05-13T12:07:36.467Z,2.00
2023-05-13T12:10:05.971Z,2.15
2023-05-13T12:12:35.452Z,1.50
2023-05-13T12:15:04.711Z,1.48
2023-05-13T12:17:33.937Z,1.58
2023-05-13T12:20:13.923Z,2.15
2023-05-13T12:22:44.576Z,1.38
2023-05-13T12:25:47.704Z,1.48
2023-05-13T12:28:18.346Z,1.60
2023-05-13T12:31:02.035Z,1.80
2023-05-13T12:33:31.434Z,1.30
2023-05-13T12:36:35.887Z,1.52
2023-05-13T12:39:05.120Z,1.52
2023-05-13T12:41:42.228Z,1.10
2023-05-13T12:44:14.813Z,1.50
2023-05-13T12:46:53.003Z,1.60
2023-05-13T12:49:20.374Z,1.55
2023-05-13T12:51:47.729Z,2.03
2023-05-13T12:54:15.140Z,1.80
2023-05-13T12:56:42.528Z,1.80
2023-05-13T12:59:10.139Z,1.50
2023-05-13T13:01:37.556Z,1.90
2023-05-13T13:04:05.076Z,1.60
2023-05-13T13:06:32.505Z,1.88
2023-05-13T13:08:59.826Z,1.70
2023-05-13T13:11:27.150Z,1.70
2023-05-13T13:13:54.495Z,1.75
2023-05-13T13:16:21.958Z,1.77
2023-05-13T13:18:51.850Z,1.60
2023-05-13T13:21:20.592Z,1.80
2023-05-13T13:23:47.897Z,1.15
2023-05-13T13:26:15.224Z,1.50
2023-05-13T13:28:42.668Z,1.40
2023-05-13T13:31:11.706Z,1.73
2023-05-13T13:33:38.987Z,1.95
2023-05-13T13:36:06.424Z,1.67
2023-05-13T13:38:33.817Z,1.98
2023-05-13T13:41:01.204Z,1.48
2023-05-13T13:43:28.447Z,1.50
2023-05-13T13:45:55.867Z,1.98
2023-05-13T13:48:23.284Z,1.85
2023-05-13T13:50:52.826Z,1.77
2023-05-13T13:53:20.426Z,1.40
2023-05-13T13:55:47.889Z,1.63
2023-05-13T13:58:15.706Z,1.65
2023-05-13T14:00:43.097Z,1.55
2023-05-13T14:03:10.783Z,1.90
2023-05-13T14:05:38.286Z,1.75
2023-05-13T14:08:05.793Z,1.35
2023-05-13T14:10:33.002Z,1.27
2023-05-13T14:13:00.425Z,1.85
2023-05-13T14:15:30.055Z,1.98
2023-05-13T14:17:57.712Z,1.42
2023-05-13T14:20:25.270Z,1.90
2023-05-13T14:22:52.693Z,2.22
2023-05-13T14:25:20.034Z,1.40
2023-05-13T14:27:47.453Z,1.35
2023-05-13T14:30:15.016Z,1.67
2023-05-13T14:32:45.286Z,1.58
2023-05-13T14:35:14.432Z,1.60
2023-05-13T14:37:42.343Z,1.70
2023-05-13T14:40:10.195Z,2.00
2023-05-13T14:42:37.589Z,1.70
2023-05-13T14:45:05.954Z,1.40
2023-05-13T14:47:33.420Z,1.83
2023-05-13T14:50:00.909Z,1.83
2023-05-13T14:52:28.125Z,1.70
2023-05-13T14:54:55.511Z,1.40
2023-05-13T14:57:22.960Z,1.38
2023-05-13T14:59:50.414Z,1.50
2023-05-13T15:02:17.783Z,1.52
2023-05-13T15:04:45.191Z,1.90
2023-05-13T15:07:12.605Z,1.30
2023-05-13T15:09:40.069Z,1.30
2023-05-13T15:12:07.951Z,1.77
2023-05-13T15:14:35.263Z,1.85
2023-05-13T15:17:02.604Z,1.50
2023-05-13T15:19:30.619Z,1.60
2023-05-13T15:21:57.869Z,1.55
2023-05-13T15:24:25.312Z,1.73
2023-05-13T15:26:52.620Z,1.88
2023-05-13T15:29:20.292Z,1.70
2023-05-13T15:31:50.935Z,2.15
2023-05-13T15:34:18.353Z,1.73
2023-05-13T15:36:45.969Z,1.60
2023-05-13T15:39:13.554Z,1.98
2023-05-13T15:41:41.077Z,1.83
2023-05-13T15:44:08.476Z,1.73
2023-05-13T15:46:36.224Z,1.60
2023-05-13T15:49:03.650Z,1.40
2023-05-13T15:51:31.889Z,2.08
2023-05-13T15:54:00.552Z,1.42
2023-05-13T15:56:27.946Z,1.80
2023-05-13T15:58:58.635Z,1.92
2023-05-13T16:01:26.026Z,2.05
2023-05-13T16:03:53.772Z,1.73
2023-05-13T16:06:21.404Z,1.90
2023-05-13T16:08:48.987Z,2.38
2023-05-13T16:11:16.342Z,2.30
2023-05-13T16:13:44.466Z,2.28
2023-05-13T16:16:12.209Z,2.03
2023-05-13T16:18:39.654Z,2.42
2023-05-13T16:21:07.035Z,2.15
2023-05-13T16:23:34.398Z,2.40
2023-05-13T16:26:01.784Z,2.50
2023-05-13T16:28:29.201Z,2.58
2023-05-13T16:30:58.522Z,2.60
2023-05-13T16:33:26.248Z,2.35
2023-05-13T16:35:53.557Z,2.63
2023-05-13T16:38:20.802Z,2.28
2023-05-13T16:40:48.674Z,1.77
2023-05-13T16:43:15.996Z,2.60
2023-05-13T16:45:43.829Z,2.58
2023-05-13T16:48:11.453Z,2.65
2023-05-13T16:50:38.786Z,2.72
2023-05-13T16:53:06.334Z,2.33
2023-05-13T16:55:33.690Z,3.05
2023-05-13T16:58:01.465Z,2.10
2023-05-13T17:00:28.984Z,2.28
2023-05-13T17:02:56.399Z,2.70
2023-05-13T17:05:24.023Z,2.47
2023-05-13T17:07:51.338Z,2.55
2023-05-13T17:10:18.536Z,3.08
2023-05-13T17:12:45.714Z,2.97
2023-05-13T17:15:13.012Z,2.80
2023-05-13T17:17:40.588Z,2.67
2023-05-13T17:20:08.840Z,3.30
2023-05-13T17:22:36.190Z,3.40
2023-05-13T17:25:04.184Z,3.90
2023-05-13T17:27:31.587Z,2.47
2023-05-13T17:29:58.932Z,3.15
2023-05-13T17:32:26.185Z,2.80
2023-05-13T17:34:53.402Z,2.92
2023-05-13T17:37:20.777Z,3.13
2023-05-13T17:39:48.094Z,3.63
2023-05-13T17:42:15.565Z,4.40
2023-05-13T17:44:42.937Z,3.35
2023-05-13T17:47:10.300Z,3.15
2023-05-13T17:49:37.645Z,3.63
2023-05-13T17:52:05.658Z,3.55
2023-05-13T17:54:33.104Z,3.20
2023-05-13T17:57:00.470Z,2.60
2023-05-13T17:59:27.823Z,2.75
2023-05-13T18:01:55.350Z,2.85
2023-05-13T18:04:22.747Z,2.90
2023-05-13T18:06:50.187Z,3.60
2023-05-13T18:09:17.815Z,3.33
2023-05-13T18:11:45.706Z,3.38
2023-05-13T18:14:12.934Z,3.20
2023-05-13T18:16:40.290Z,3.78
2023-05-13T18:19:07.930Z,3.50
2023-05-13T18:21:35.232Z,3.17
2023-05-13T18:24:02.568Z,2.85
2023-05-13T18:26:29.989Z,3.05
2023-05-13T18:28:57.416Z,3.55
2023-05-13T18:31:25.430Z,2.75
2023-05-13T18:33:52.858Z,3.20
2023-05-13T18:36:20.453Z,2.63
2023-05-13T18:38:48.039Z,3.10
2023-05-13T18:41:16.087Z,3.35
2023-05-13T18:43:43.739Z,3.13
2023-05-13T18:46:11.673Z,3.45
2023-05-13T18:48:39.221Z,3.17
2023-05-13T18:51:06.574Z,3.15
2023-05-13T18:53:33.814Z,3.47
2023-05-13T18:56:01.402Z,3.38
2023-05-13T18:58:28.795Z,2.97
2023-05-13T19:00:56.306Z,3.33
2023-05-13T19:03:23.806Z,3.03
2023-05-13T19:05:52.044Z,2.92
2023-05-13T19:08:19.419Z,3.05
2023-05-13T19:10:47.213Z,2.55
2023-05-13T19:13:16.761Z,3.60
2023-05-13T19:15:44.127Z,2.78
2023-05-13T19:18:11.515Z,4.00
2023-05-13T19:20:39.054Z,2.80
2023-05-13T19:23:06.709Z,3.00
2023-05-13T19:25:33.938Z,3.45
2023-05-13T19:28:04.058Z,3.20
2023-05-13T19:30:31.420Z,3.35
2023-05-13T19:32:58.676Z,2.60
2023-05-13T19:35:26.120Z,3.25
2023-05-13T19:37:53.550Z,3.63
2023-05-13T19:40:21.076Z,3.50
2023-05-13T19:42:49.340Z,3.00
2023-05-13T19:45:19.274Z,3.53
2023-05-13T19:47:47.230Z,3.13
2023-05-13T19:50:14.573Z,2.67
2023-05-13T19:52:43.553Z,3.50
2023-05-13T19:55:11.254Z,3.47
2023-05-13T19:57:41.124Z,2.92
2023-05-13T20:00:12.103Z,3.15
2023-05-13T20:02:39.858Z,3.17
2023-05-13T20:05:08.298Z,3.00
2023-05-13T20:07:35.622Z,3.28
2023-05-13T20:10:04.037Z,3.28
2023-05-13T20:12:32.054Z,3.63
2023-05-13T20:15:00.355Z,3.20
2023-05-13T20:17:27.789Z,3.58
2023-05-13T20:19:55.669Z,3.20
2023-05-13T20:22:23.112Z,3.90
2023-05-13T20:24:51.340Z,3.30
2023-05-13T20:27:18.560Z,3.67
2023-05-13T20:29:47.334Z,3.97
2023-05-13T20:32:24.135Z,3.38
2023-05-13T20:34:52.471Z,3.83
2023-05-13T20:37:22.678Z,4.15
2023-05-13T20:39:51.502Z,3.58
2023-05-13T20:42:21.417Z,3.53
2023-05-13T20:44:48.921Z,3.10
2023-05-13T20:47:16.576Z,3.38
2023-05-13T20:49:43.905Z,2.83
2023-05-13T20:52:11.483Z,3.63
2023-05-13T20:54:39.061Z,2.78
2023-05-13T20:57:06.495Z,2.65
2023-05-13T20:59:34.120Z,3.15
2023-05-13T21:02:01.414Z,4.10
2023-05-13T21:04:28.722Z,3.70
2023-05-13T21:06:57.267Z,3.38
2023-05-13T21:09:24.627Z,3.63
2023-05-13T21:11:51.866Z,3.38
2023-05-13T21:14:19.142Z,3.58
2023-05-13T21:16:46.580Z,3.95
2023-05-13T21:19:23.262Z,3.33
2023-05-13T21:21:51.121Z,4.18
2023-05-13T21:24:19.676Z,3.78
2023-05-13T21:26:48.849Z,3.60
2023-05-13T21:29:18.517Z,3.70
2023-05-13T21:31:47.573Z,3.25
2023-05-13T21:34:15.124Z,3.25
2023-05-13T21:36:42.489Z,3.15
2023-05-13T21:39:10.458Z,3.60
2023-05-13T21:41:38.049Z,4.00
2023-05-13T21:44:06.246Z,3.45
2023-05-13T21:46:33.864Z,3.20
2023-05-13T21:49:01.635Z,4.28
2023-05-13T21:51:29.059Z,3.63
2023-05-13T21:53:56.455Z,3.95
2023-05-13T21:56:23.833Z,3.03
2023-05-13T21:58:51.427Z,3.13
2023-05-13T22:01:18.779Z,3.55
2023-05-13T22:03:46.080Z,3.65
2023-05-13T22:06:13.340Z,3.58
2023-05-13T22:08:40.715Z,3.78
2023-05-13T22:11:08.124Z,3.33
2023-05-13T22:13:35.643Z,3.35
2023-05-13T22:16:02.920Z,4.38
2023-05-13T22:18:30.436Z,3.42
2023-05-13T22:20:59.430Z,3.30
2023-05-13T22:23:27.433Z,3.70
2023-05-13T22:25:54.820Z,4.25
2023-05-13T22:28:22.342Z,3.50
2023-05-13T22:30:51.494Z,3.88
2023-05-13T22:33:19.260Z,4.28
2023-05-13T22:35:47.134Z,3.22
2023-05-13T22:38:14.396Z,4.03
2023-05-13T22:40:41.649Z,3.83
2023-05-13T22:43:08.832Z,3.80
2023-05-13T22:45:36.921Z,3.85
2023-05-13T22:48:04.755Z,3.47
2023-05-13T22:50:32.095Z,3.53
2023-05-13T22:52:59.302Z,3.85
2023-05-13T22:55:26.534Z,3.85
2023-05-13T22:57:53.736Z,4.53
2023-05-13T23:00:21.316Z,3.63
2023-05-13T23:02:48.709Z,3.80
2023-05-13T23:05:15.995Z,3.28
2023-05-13T23:07:43.210Z,3.70
2023-05-13T23:10:10.776Z,3.72
2023-05-13T23:12:38.333Z,4.72
2023-05-13T23:15:07.010Z,3.70
2023-05-13T23:17:34.350Z,3.63
2023-05-13T23:20:01.735Z,3.60
2023-05-13T23:22:29.113Z,4.53
2023-05-13T23:24:56.298Z,4.75
2023-05-13T23:27:23.490Z,4.47
2023-05-13T23:29:50.714Z,3.40
2023-05-13T23:32:19.001Z,4.50
2023-05-13T23:34:46.337Z,3.53
2023-05-13T23:37:15.521Z,4.03
2023-05-13T23:39:42.723Z,4.20
2023-05-13T23:42:10.462Z,3.70
2023-05-13T23:44:38.716Z,3.60
2023-05-13T23:47:06.187Z,3.70
2023-05-13T23:49:33.370Z,3.47
2023-05-13T23:52:00.634Z,4.50
2023-05-13T23:54:27.985Z,3.92
2023-05-13T23:56:55.389Z,3.78
2023-05-13T23:59:22.795Z,3.60
